Time;durP1;ratioP1;P1;durP2;ratioP2;P2;SDS_P1;SDS_P2;PMS_P1;PMS_P2;Temp;Humidity;BMP_temperature;BMP_pressure;BME280_temperature;BME280_humidity;BME280_pressure;Samples;Min_cycle;Max_cycle;Signal;HPM_P1;HPM_P2
2022/08/21 00:01:06;;;;;;;6.37;5.23;;;;;25.00;100638.00;;;;2086824;28;20212;-53
2022/08/21 00:02:16;;;;;;;5.70;5.10;;;;;24.30;100636.00;;;;2091561;28;20243;-53
2022/08/21 00:03:16;;;;;;;5.10;4.55;;;;;25.00;100631.00;;;;2094047;28;20447;-54
2022/08/21 00:04:17;;;;;;;5.17;4.67;;;;;25.00;100629.00;;;;2094343;28;20347;-54
2022/08/21 00:05:17;;;;;;;6.60;5.10;;;;;25.00;100628.00;;;;2094766;28;20219;-53
2022/08/21 00:06:17;;;;;;;5.80;5.10;;;;;25.00;100628.00;;;;2095004;28;20219;-54
2022/08/21 00:07:18;;;;;;;4.93;4.53;;;;;25.00;100641.00;;;;2094436;28;20212;-53
2022/08/21 00:08:19;;;;;;;5.27;4.77;;;;;25.00;100619.00;;;;2093712;28;20688;-53
2022/08/21 00:09:19;;;;;;;5.80;4.90;;;;;25.00;100622.00;;;;2078064;28;20765;-53
2022/08/21 00:10:19;;;;;;;6.50;4.47;;;;;25.00;100611.00;;;;2086211;28;20220;-54
2022/08/21 00:11:20;;;;;;;4.93;4.47;;;;;25.00;100621.00;;;;2086850;28;20263;-53
2022/08/21 00:12:20;;;;;;;4.83;4.23;;;;;25.00;100612.00;;;;2091450;28;20212;-54
2022/08/21 00:13:21;;;;;;;6.57;4.53;;;;;25.10;100607.00;;;;2095128;28;20213;-53
2022/08/21 00:14:21;;;;;;;5.73;4.70;;;;;25.00;100604.00;;;;2094781;28;20223;-53
2022/08/21 00:15:29;;;;;;;4.40;4.00;;;;;25.00;100591.00;;;;2094159;28;20760;-54
2022/08/21 00:16:29;;;;;;;4.80;4.30;;;;;25.00;100608.00;;;;2094360;28;20782;-54
2022/08/21 00:17:30;;;;;;;5.17;4.30;;;;;25.00;100613.00;;;;2094182;28;20442;-53
2022/08/21 00:18:30;;;;;;;4.77;4.27;;;;;25.00;100604.00;;;;2095181;28;20302;-53
2022/08/21 00:19:31;;;;;;;5.37;4.67;;;;;25.00;100607.00;;;;2093346;28;20231;-53
2022/08/21 00:20:31;;;;;;;4.60;4.13;;;;;25.00;100603.00;;;;2094887;28;20227;-54
2022/08/21 00:21:32;;;;;;;5.20;3.90;;;;;25.00;100606.00;;;;2094935;28;20220;-54
2022/08/21 00:22:33;;;;;;;4.60;4.20;;;;;25.00;100600.00;;;;2094755;28;20222;-54
2022/08/21 00:23:34;;;;;;;4.77;4.37;;;;;25.00;100605.00;;;;2094788;28;20447;-53
2022/08/21 00:24:34;;;;;;;6.27;4.00;;;;;25.00;100602.00;;;;2094903;28;20227;-54
2022/08/21 00:25:35;;;;;;;4.57;4.17;;;;;25.00;100599.00;;;;2094894;28;20984;-53
2022/08/21 00:26:35;;;;;;;4.00;3.60;;;;;25.00;100603.00;;;;2094909;28;20292;-54
2022/08/21 00:27:36;;;;;;;6.57;4.67;;;;;25.00;100605.00;;;;2094028;28;21058;-53
2022/08/21 00:28:36;;;;;;;4.67;3.90;;;;;25.00;100599.00;;;;2094462;28;20236;-54
2022/08/21 00:29:36;;;;;;;4.57;4.17;;;;;25.00;100605.00;;;;2094309;28;20299;-53
2022/08/21 00:30:37;;;;;;;4.67;3.90;;;;;25.00;100600.00;;;;2095014;28;20276;-54
2022/08/21 00:31:37;;;;;;;4.43;4.03;;;;;25.00;100598.00;;;;2094788;28;20219;-54
2022/08/21 00:32:38;;;;;;;5.13;3.63;;;;;25.00;100595.00;;;;2091505;28;20238;-54
2022/08/21 00:33:38;;;;;;;4.83;4.33;;;;;25.00;100593.00;;;;2093536;28;20220;-53
2022/08/21 00:34:39;;;;;;;4.23;3.83;;;;;25.00;100605.00;;;;2094535;28;20458;-53
2022/08/21 00:35:40;;;;;;;4.37;3.97;;;;;25.00;100601.00;;;;2094078;28;20216;-53
2022/08/21 00:36:40;;;;;;;4.20;3.80;;;;;25.00;100600.00;;;;2093913;28;20216;-53
2022/08/21 00:37:41;;;;;;;4.73;3.70;;;;;25.00;100594.00;;;;2092989;28;20215;-54
2022/08/21 00:38:41;;;;;;;4.33;3.93;;;;;24.90;100587.00;;;;2093891;28;20216;-54
2022/08/21 00:39:41;;;;;;;4.77;4.20;;;;;25.00;100591.00;;;;2094928;28;20208;-54
2022/08/21 00:40:44;;;;;;;3.93;3.57;;;;;25.00;100596.00;;;;2094930;28;20219;-54
2022/08/21 00:41:44;;;;;;;4.20;3.80;;;;;25.00;100592.00;;;;2095027;28;20249;-53
2022/08/21 00:42:44;;;;;;;5.10;3.67;;;;;24.90;100594.00;;;;2093594;28;21001;-60
2022/08/21 00:43:45;;;;;;;4.47;4.07;;;;;24.90;100590.00;;;;2094777;28;20570;-57
2022/08/21 00:44:46;;;;;;;5.47;3.80;;;;;24.90;100594.00;;;;2086738;28;20553;-58
2022/08/21 00:45:46;;;;;;;4.90;4.47;;;;;25.00;100594.00;;;;2077725;28;20244;-55
2022/08/21 00:46:47;;;;;;;3.73;3.43;;;;;25.00;100593.00;;;;2077824;28;20539;-55
2022/08/21 00:47:47;;;;;;;3.60;3.30;;;;;25.00;100594.00;;;;2085772;28;20213;-56
2022/08/21 00:48:48;;;;;;;5.17;3.50;;;;;25.00;100593.00;;;;2086733;28;20238;-56
2022/08/21 00:49:48;;;;;;;4.60;3.27;;;;;24.90;100598.00;;;;2086611;28;20367;-55
2022/08/21 00:50:54;;;;;;;3.90;3.60;;;;;25.00;100593.00;;;;2086710;28;20209;-56
2022/08/21 00:51:57;;;;;;;3.67;3.37;;;;;25.00;100600.00;;;;2085908;28;20216;-53
2022/08/21 00:52:58;;;;;;;4.55;4.13;;;;;25.00;100600.00;;;;2086037;28;20475;-54
2022/08/21 00:53:59;;;;;;;4.20;3.80;;;;;25.00;100596.00;;;;2085981;28;20209;-55
2022/08/21 00:55:00;;;;;;;3.95;3.42;;;;;24.90;100602.00;;;;2077847;28;20213;-54
2022/08/21 00:56:02;;;;;;;3.77;3.37;;;;;24.90;100594.00;;;;2077567;28;20304;-54
2022/08/21 00:57:09;;;;;;;4.80;4.27;;;;;25.00;100572.00;;;;2085776;28;20323;-52
2022/08/21 00:58:09;;;;;;;3.60;3.30;;;;;24.90;100590.00;;;;2074922;28;20558;-51
2022/08/21 00:59:10;;;;;;;4.57;3.70;;;;;24.90;100599.00;;;;2082817;28;20274;-55
2022/08/21 01:00:12;;;;;;;5.27;3.70;;;;;24.90;100594.00;;;;2086166;28;20348;-55
2022/08/21 01:01:12;;;;;;;3.97;3.58;;;;;24.90;100598.00;;;;2096423;28;20338;-53
2022/08/21 01:02:13;;;;;;;4.53;3.97;;;;;24.90;100597.00;;;;2095628;28;20318;-51
2022/08/21 01:03:15;;;;;;;4.10;3.70;;;;;24.90;100600.00;;;;2095817;28;20223;-53
2022/08/21 01:04:16;;;;;;;5.53;3.40;;;;;24.90;100594.00;;;;2096171;28;20219;-55
2022/08/21 01:05:17;;;;;;;4.10;3.53;;;;;24.90;100605.00;;;;2087422;28;20993;-55
2022/08/21 01:06:17;;;;;;;4.13;3.80;;;;;24.90;100599.00;;;;2087350;28;20240;-55
2022/08/21 01:07:17;;;;;;;3.90;3.47;;;;;24.90;100599.00;;;;2091048;28;20209;-52
2022/08/21 01:08:18;;;;;;;4.50;3.33;;;;;24.90;100597.00;;;;2087728;28;20209;-58
2022/08/21 01:09:19;;;;;;;3.50;3.20;;;;;24.90;100578.00;;;;2086774;28;20571;-57
2022/08/21 01:10:19;;;;;;;5.53;3.87;;;;;24.90;100602.00;;;;2079144;28;20860;-55
2022/08/21 01:11:20;;;;;;;3.20;2.90;;;;;24.90;100598.00;;;;2087538;28;20278;-55
2022/08/21 01:12:20;;;;;;;4.57;3.57;;;;;24.90;100599.00;;;;2088229;28;20677;-54
2022/08/21 01:13:20;;;;;;;4.33;3.43;;;;;24.90;100598.00;;;;2079156;28;20216;-54
2022/08/21 01:14:21;;;;;;;4.70;3.53;;;;;24.90;100595.00;;;;2079022;28;20213;-54
2022/08/21 01:15:21;;;;;;;5.00;3.43;;;;;24.90;100598.00;;;;2095581;28;20211;-55
2022/08/21 01:16:22;;;;;;;4.30;3.80;;;;;24.90;100563.00;;;;2087392;28;20294;-54
2022/08/21 01:17:22;;;;;;;3.70;3.30;;;;;24.90;100591.00;;;;2086371;28;20286;-53
2022/08/21 01:18:23;;;;;;;3.93;3.50;;;;;24.90;100598.00;;;;2078748;28;20221;-54
2022/08/21 01:19:23;;;;;;;3.43;3.13;;;;;24.90;100602.00;;;;2078549;28;20222;-54
2022/08/21 01:20:23;;;;;;;4.20;3.17;;;;;24.90;100597.00;;;;2087013;28;20241;-54
2022/08/21 01:21:25;;;;;;;4.83;3.80;;;;;24.90;100601.00;;;;2088115;28;20232;-55
2022/08/21 01:22:26;;;;;;;4.30;3.90;;;;;24.90;100597.00;;;;2087297;28;20221;-55
2022/08/21 01:23:26;;;;;;;4.20;3.27;;;;;24.90;100625.00;;;;2087396;28;20447;-56
2022/08/21 01:24:26;;;;;;;4.00;3.60;;;;;24.90;100602.00;;;;2088011;28;20212;-53
2022/08/21 01:25:27;;;;;;;5.00;3.07;;;;;24.90;100606.00;;;;2088026;28;20220;-53
2022/08/21 01:26:29;;;;;;;3.97;3.57;;;;;24.90;100606.00;;;;2087748;28;20217;-55
2022/08/21 01:27:30;;;;;;;3.60;3.30;;;;;24.90;100603.00;;;;2087020;28;20223;-54
2022/08/21 01:28:32;;;;;;;3.57;3.17;;;;;24.90;100608.00;;;;2087926;28;20852;-55
2022/08/21 01:29:36;;;;;;;4.40;3.50;;;;;24.90;100608.00;;;;2087126;28;20243;-56
2022/08/21 01:30:36;;;;;;;4.37;3.50;;;;;24.90;100560.00;;;;2079510;28;20515;-54
2022/08/21 01:31:37;;;;;;;3.77;3.47;;;;;24.90;100617.00;;;;2078976;28;20464;-52
2022/08/21 01:32:37;;;;;;;4.10;3.63;;;;;24.90;100601.00;;;;2079097;28;20220;-55
2022/08/21 01:33:38;;;;;;;3.10;2.90;;;;;24.90;100599.00;;;;2087919;28;20220;-55
2022/08/21 01:34:39;;;;;;;4.80;3.47;;;;;24.90;100602.00;;;;2087601;28;20217;-56
2022/08/21 01:35:39;;;;;;;4.68;3.60;;;;;24.90;100602.00;;;;2087827;28;20299;-55
2022/08/21 01:36:40;;;;;;;3.80;3.50;;;;;24.90;100602.00;;;;2087859;28;20207;-55
2022/08/21 01:37:40;;;;;;;3.97;3.57;;;;;24.90;100603.00;;;;2084908;28;20220;-55
2022/08/21 01:38:41;;;;;;;4.03;3.30;;;;;24.90;100605.00;;;;2087709;28;20208;-54
2022/08/21 01:39:41;;;;;;;3.97;3.27;;;;;24.90;100602.00;;;;2087782;28;25388;-55
2022/08/21 01:40:41;;;;;;;4.40;3.43;;;;;24.90;100606.00;;;;2088040;28;20291;-53
2022/08/21 01:41:42;;;;;;;4.40;3.33;;;;;24.90;100603.00;;;;2087475;28;20221;-55
2022/08/21 01:42:43;;;;;;;4.10;3.50;;;;;24.90;100598.00;;;;2087605;28;20240;-55
2022/08/21 01:43:44;;;;;;;3.80;3.50;;;;;24.90;100605.00;;;;2087152;28;20216;-54
2022/08/21 01:44:44;;;;;;;3.40;3.10;;;;;24.90;100594.00;;;;2087130;28;20455;-55
2022/08/21 01:45:44;;;;;;;4.70;3.50;;;;;24.90;100597.00;;;;2087794;28;20534;-54
2022/08/21 01:46:45;;;;;;;3.60;3.10;;;;;24.90;100609.00;;;;2088018;28;20842;-55
2022/08/21 01:47:45;;;;;;;3.73;3.33;;;;;24.90;100598.00;;;;2086627;28;20580;-54
2022/08/21 01:48:45;;;;;;;3.67;3.30;;;;;24.90;100603.00;;;;2087316;28;20638;-56
2022/08/21 01:49:46;;;;;;;3.10;2.80;;;;;24.90;100598.00;;;;2086852;28;20224;-54
2022/08/21 01:50:46;;;;;;;3.87;3.07;;;;;24.90;100583.00;;;;2087801;28;20266;-54
2022/08/21 01:51:47;;;;;;;4.00;3.60;;;;;24.90;100590.00;;;;2087536;28;20692;-54
2022/08/21 01:52:47;;;;;;;3.43;2.90;;;;;24.90;100440.00;;;;2087130;28;20582;-54
2022/08/21 01:53:48;;;;;;;3.93;3.20;;;;;24.90;100591.00;;;;2087066;28;20221;-54
2022/08/21 01:54:48;;;;;;;3.70;3.20;;;;;24.80;100598.00;;;;2087914;28;20274;-54
2022/08/21 01:55:48;;;;;;;3.50;3.10;;;;;24.80;100583.00;;;;2087764;28;20216;-54
2022/08/21 01:56:50;;;;;;;3.60;3.13;;;;;24.90;100570.00;;;;2087867;28;20213;-54
2022/08/21 01:57:51;;;;;;;3.33;2.93;;;;;24.90;100583.00;;;;2077679;28;20209;-54
2022/08/21 01:58:51;;;;;;;3.47;3.17;;;;;24.90;100593.00;;;;2078889;28;20980;-54
2022/08/21 01:59:51;;;;;;;4.20;3.00;;;;;24.90;100589.00;;;;2095429;28;20669;-54
2022/08/21 02:00:52;;;;;;;3.50;3.20;;;;;24.80;100587.00;;;;2087691;28;20734;-54
2022/08/21 02:01:53;;;;;;;3.50;3.20;;;;;24.50;100592.00;;;;2087643;28;20213;-54
2022/08/21 02:02:54;;;;;;;3.33;2.77;;;;;24.90;100588.00;;;;2087688;28;20212;-54
2022/08/21 02:03:55;;;;;;;3.27;2.97;;;;;24.80;100573.00;;;;2087468;28;20566;-54
2022/08/21 02:04:55;;;;;;;3.40;3.10;;;;;24.90;100591.00;;;;2086801;28;20205;-54
2022/08/21 02:05:55;;;;;;;3.43;3.10;;;;;24.80;100592.00;;;;2087460;28;20282;-54
2022/08/21 02:06:56;;;;;;;4.27;3.87;;;;;24.90;100583.00;;;;2087409;28;20209;-58
2022/08/21 02:07:56;;;;;;;3.77;2.77;;;;;24.90;100581.00;;;;2086680;28;20240;-55
2022/08/21 02:08:57;;;;;;;4.70;3.00;;;;;24.90;100606.00;;;;2095244;28;20774;-56
2022/08/21 02:09:57;;;;;;;3.60;3.30;;;;;24.90;100581.00;;;;2095238;28;20216;-54
2022/08/21 02:10:57;;;;;;;3.70;3.20;;;;;24.90;100576.00;;;;2087025;28;20209;-54
2022/08/21 02:11:58;;;;;;;3.63;3.33;;;;;24.90;100580.00;;;;2087604;28;20217;-55
2022/08/21 02:13:00;;;;;;;4.40;3.03;;;;;24.80;100580.00;;;;2087545;28;20232;-55
2022/08/21 02:14:00;;;;;;;3.33;3.03;;;;;24.80;100578.00;;;;2087806;28;20815;-54
2022/08/21 02:15:02;;;;;;;3.30;3.00;;;;;24.90;100576.00;;;;2087649;28;20454;-54
2022/08/21 02:16:02;;;;;;;2.93;2.73;;;;;24.80;100607.00;;;;2086822;28;20209;-54
2022/08/21 02:17:03;;;;;;;4.40;3.13;;;;;24.80;100583.00;;;;2091462;28;20515;-54
2022/08/21 02:18:04;;;;;;;2.90;2.70;;;;;24.80;100581.00;;;;2094465;28;20223;-54
2022/08/21 02:19:05;;;;;;;4.20;3.60;;;;;24.80;100578.00;;;;2088536;28;20221;-54
2022/08/21 02:20:05;;;;;;;3.30;3.00;;;;;24.80;100579.00;;;;2087306;28;20447;-54
2022/08/21 02:21:06;;;;;;;3.67;3.37;;;;;24.80;100579.00;;;;2086870;28;20681;-54
2022/08/21 02:22:09;;;;;;;3.50;3.00;;;;;24.80;100575.00;;;;2086920;28;20219;-54
2022/08/21 02:23:10;;;;;;;4.13;2.85;;;;;24.80;100586.00;;;;2086942;28;20307;-54
2022/08/21 02:24:11;;;;;;;3.10;2.90;;;;;24.80;100576.00;;;;2085950;28;20213;-54
2022/08/21 02:25:11;;;;;;;2.70;2.50;;;;;24.80;100572.00;;;;2086428;28;20216;-54
2022/08/21 02:26:12;;;;;;;2.87;2.67;;;;;24.80;100581.00;;;;2081890;28;20471;-54
2022/08/21 02:27:12;;;;;;;5.77;3.00;;;;;24.80;100570.00;;;;2094405;28;20611;-54
2022/08/21 02:28:13;;;;;;;4.10;3.23;;;;;24.80;100575.00;;;;2088028;28;20216;-54
2022/08/21 02:29:13;;;;;;;3.67;2.70;;;;;24.80;100583.00;;;;2087044;28;20236;-54
2022/08/21 02:30:16;;;;;;;4.40;3.30;;;;;24.80;100586.00;;;;2087004;28;21006;-54
2022/08/21 02:31:16;;;;;;;4.50;3.67;;;;;24.80;100567.00;;;;2087066;28;20858;-54
2022/08/21 02:32:16;;;;;;;4.57;3.77;;;;;24.80;100566.00;;;;2086922;28;20486;-54
2022/08/21 02:33:17;;;;;;;3.73;3.43;;;;;24.80;100573.00;;;;2086763;28;20209;-54
2022/08/21 02:34:17;;;;;;;3.60;3.27;;;;;24.80;100572.00;;;;2087011;28;20685;-54
2022/08/21 02:35:18;;;;;;;3.90;3.20;;;;;24.70;100568.00;;;;2086884;28;20209;-54
2022/08/21 02:36:18;;;;;;;3.33;2.93;;;;;24.80;100573.00;;;;2086338;28;20236;-54
2022/08/21 02:37:19;;;;;;;3.20;2.90;;;;;24.80;100297.00;;;;2085306;28;20753;-54
2022/08/21 02:38:22;;;;;;;3.00;2.63;;;;;24.80;100572.00;;;;2086843;28;20720;-54
2022/08/21 02:39:22;;;;;;;2.90;2.70;;;;;24.80;100570.00;;;;2086879;28;20213;-54
2022/08/21 02:40:24;;;;;;;3.73;3.00;;;;;24.80;100568.00;;;;2086704;28;20455;-54
2022/08/21 02:41:25;;;;;;;3.30;3.00;;;;;24.80;100571.00;;;;2086921;28;20213;-54
2022/08/21 02:42:25;;;;;;;3.57;3.17;;;;;24.80;100563.00;;;;2086895;28;20846;-54
2022/08/21 02:43:26;;;;;;;3.43;3.13;;;;;24.80;100563.00;;;;2086972;28;20209;-54
2022/08/21 02:44:26;;;;;;;3.30;3.00;;;;;24.80;100566.00;;;;2094269;28;20670;-54
2022/08/21 02:45:28;;;;;;;2.70;2.50;;;;;24.80;100566.00;;;;2095528;28;20521;-54
2022/08/21 02:46:28;;;;;;;3.13;2.77;;;;;24.80;100561.00;;;;2095581;28;20228;-54
2022/08/21 02:47:29;;;;;;;3.23;2.93;;;;;24.80;100559.00;;;;2094498;28;20465;-54
2022/08/21 02:48:31;;;;;;;3.90;3.33;;;;;24.80;100566.00;;;;2095301;28;20228;-54
2022/08/21 02:49:31;;;;;;;3.43;3.03;;;;;24.80;100572.00;;;;2089690;28;20351;-54
2022/08/21 02:50:34;;;;;;;3.30;2.90;;;;;24.80;100567.00;;;;2095393;28;20943;-54
2022/08/21 02:51:34;;;;;;;3.08;2.78;;;;;24.80;100566.00;;;;2095463;28;20208;-54
2022/08/21 02:52:36;;;;;;;3.63;3.10;;;;;24.80;100571.00;;;;2095564;28;20219;-54
2022/08/21 02:53:36;;;;;;;3.40;3.10;;;;;24.70;100571.00;;;;2095282;28;20219;-54
2022/08/21 02:54:36;;;;;;;3.70;2.97;;;;;24.70;100578.00;;;;2094132;28;21009;-54
2022/08/21 02:55:37;;;;;;;3.73;3.43;;;;;24.80;100575.00;;;;2094106;28;20639;-54
2022/08/21 02:56:37;;;;;;;2.70;2.50;;;;;24.70;100577.00;;;;2094915;28;20618;-54
2022/08/21 02:57:37;;;;;;;4.10;3.20;;;;;24.70;100575.00;;;;2094542;28;20208;-54
2022/08/21 02:58:41;;;;;;;3.30;2.90;;;;;24.70;100596.00;;;;2095319;28;20231;-54
2022/08/21 02:59:41;;;;;;;2.80;2.60;;;;;24.70;100575.00;;;;2095455;28;20694;-54
2022/08/21 03:00:42;;;;;;;3.33;3.03;;;;;24.70;100574.00;;;;2095398;28;20439;-55
2022/08/21 03:01:43;;;;;;;2.77;2.50;;;;;24.70;100586.00;;;;2095475;28;20204;-54
2022/08/21 03:02:46;;;;;;;3.10;2.80;;;;;24.70;100578.00;;;;2095240;28;20458;-54
2022/08/21 03:03:49;;;;;;;3.40;3.10;;;;;24.70;100574.00;;;;2094874;28;20458;-54
2022/08/21 03:04:49;;;;;;;3.63;2.83;;;;;24.70;100578.00;;;;2095319;28;20453;-54
2022/08/21 03:05:50;;;;;;;3.40;3.10;;;;;24.70;100574.00;;;;2095423;28;20461;-54
2022/08/21 03:06:50;;;;;;;3.30;2.93;;;;;24.70;100578.00;;;;2095358;28;20633;-54
2022/08/21 03:07:52;;;;;;;3.90;3.00;;;;;24.70;100572.00;;;;2094132;28;20204;-54
2022/08/21 03:08:52;;;;;;;3.87;3.30;;;;;24.70;100572.00;;;;2095250;28;20207;-54
2022/08/21 03:09:52;;;;;;;3.07;2.80;;;;;24.70;100567.00;;;;2095108;28;20466;-54
2022/08/21 03:10:53;;;;;;;3.57;2.87;;;;;24.70;100562.00;;;;2095403;28;20251;-54
2022/08/21 03:11:53;;;;;;;2.97;2.70;;;;;24.70;100638.00;;;;2095174;28;20281;-54
2022/08/21 03:12:54;;;;;;;3.30;2.97;;;;;24.70;100561.00;;;;2095409;28;21017;-54
2022/08/21 03:13:54;;;;;;;4.33;2.77;;;;;24.70;100562.00;;;;2095406;28;20937;-54
2022/08/21 03:14:54;;;;;;;3.07;2.80;;;;;24.70;100564.00;;;;2095168;28;20204;-54
2022/08/21 03:15:55;;;;;;;3.33;3.00;;;;;24.70;100566.00;;;;2095135;28;20317;-54
2022/08/21 03:16:55;;;;;;;2.97;2.70;;;;;24.70;100559.00;;;;2095282;28;20220;-54
2022/08/21 03:17:56;;;;;;;3.50;2.77;;;;;24.70;100563.00;;;;2094411;28;20216;-54
2022/08/21 03:18:56;;;;;;;3.43;2.90;;;;;24.70;100568.00;;;;2095152;28;20231;-54
2022/08/21 03:19:57;;;;;;;3.73;2.70;;;;;24.70;100556.00;;;;2095195;28;20212;-53
2022/08/21 03:20:57;;;;;;;3.10;2.77;;;;;24.70;100555.00;;;;2095208;28;20223;-54
2022/08/21 03:21:57;;;;;;;2.97;2.77;;;;;24.70;100564.00;;;;2095005;28;20216;-54
2022/08/21 03:22:58;;;;;;;3.63;3.30;;;;;24.70;100558.00;;;;2094555;28;20688;-54
2022/08/21 03:23:58;;;;;;;3.13;2.80;;;;;24.70;100560.00;;;;2095446;28;20709;-54
2022/08/21 03:24:59;;;;;;;4.37;3.10;;;;;24.70;100557.00;;;;2095224;28;20254;-54
2022/08/21 03:25:59;;;;;;;4.07;2.90;;;;;24.70;100574.00;;;;2094926;28;20774;-54
2022/08/21 03:26:59;;;;;;;2.90;2.60;;;;;24.70;100564.00;;;;2094883;28;20220;-54
2022/08/21 03:28:00;;;;;;;2.90;2.60;;;;;24.70;100549.00;;;;2094401;28;20285;-54
2022/08/21 03:29:01;;;;;;;3.60;2.80;;;;;24.70;100556.00;;;;2085595;28;20212;-54
2022/08/21 03:30:03;;;;;;;4.00;3.07;;;;;24.70;100562.00;;;;2086058;28;20898;-54
2022/08/21 03:31:04;;;;;;;3.60;3.20;;;;;24.70;100551.00;;;;2093897;28;20220;-54
2022/08/21 03:32:05;;;;;;;3.40;2.88;;;;;24.70;100562.00;;;;2094605;28;20462;-54
2022/08/21 03:33:05;;;;;;;3.10;2.80;;;;;24.70;100560.00;;;;2094501;28;20330;-54
2022/08/21 03:34:05;;;;;;;3.03;2.73;;;;;24.70;100551.00;;;;2095161;28;20238;-54
2022/08/21 03:35:06;;;;;;;3.23;2.97;;;;;24.70;100560.00;;;;2095183;28;20220;-54
2022/08/21 03:36:06;;;;;;;3.13;2.83;;;;;24.70;100559.00;;;;2095084;28;20220;-54
2022/08/21 03:37:07;;;;;;;3.47;3.17;;;;;24.70;100562.00;;;;2095042;28;20351;-54
2022/08/21 03:38:08;;;;;;;3.27;2.80;;;;;24.70;100562.00;;;;2094208;28;20223;-54
2022/08/21 03:39:08;;;;;;;4.00;2.80;;;;;24.70;100567.00;;;;2095113;28;20628;-54
2022/08/21 03:40:09;;;;;;;3.07;2.73;;;;;24.70;100555.00;;;;2094944;28;20579;-54
2022/08/21 03:41:09;;;;;;;2.90;2.60;;;;;24.70;100557.00;;;;2094545;28;20223;-55
2022/08/21 03:42:10;;;;;;;2.80;2.53;;;;;24.70;100551.00;;;;2095293;28;20954;-55
2022/08/21 03:43:11;;;;;;;2.60;2.40;;;;;24.70;100557.00;;;;2095129;28;20622;-55
2022/08/21 03:44:11;;;;;;;3.87;2.80;;;;;24.70;100560.00;;;;2095099;28;20708;-54
2022/08/21 03:45:12;;;;;;;2.93;2.63;;;;;24.70;100559.00;;;;2095051;28;20578;-55
2022/08/21 03:46:12;;;;;;;3.13;2.50;;;;;24.70;100557.00;;;;2095117;28;20755;-55
2022/08/21 03:47:12;;;;;;;3.97;2.90;;;;;24.70;100560.00;;;;2095082;28;20707;-55
2022/08/21 03:48:13;;;;;;;4.27;2.80;;;;;24.20;100556.00;;;;2094217;28;21104;-54
2022/08/21 03:49:13;;;;;;;3.70;2.70;;;;;24.70;100566.00;;;;2094810;28;20298;-54
2022/08/21 03:50:15;;;;;;;3.93;2.67;;;;;24.60;100554.00;;;;2094949;28;20599;-55
2022/08/21 03:51:16;;;;;;;3.53;3.20;;;;;24.70;100553.00;;;;2086009;28;20209;-54
2022/08/21 03:52:16;;;;;;;2.90;2.60;;;;;24.70;100561.00;;;;2086555;28;20460;-55
2022/08/21 03:53:17;;;;;;;3.50;3.20;;;;;24.60;100554.00;;;;2094791;28;20208;-54
2022/08/21 03:54:17;;;;;;;2.90;2.70;;;;;24.70;100553.00;;;;2094723;28;20603;-54
2022/08/21 03:55:17;;;;;;;2.70;2.50;;;;;24.60;100554.00;;;;2094976;28;20582;-54
2022/08/21 03:56:18;;;;;;;3.30;3.00;;;;;24.70;100553.00;;;;2094615;28;20580;-54
2022/08/21 03:57:18;;;;;;;3.27;2.97;;;;;24.70;100562.00;;;;2094559;28;20250;-54
2022/08/21 03:58:20;;;;;;;2.93;2.63;;;;;24.70;100547.00;;;;2094674;28;20240;-54
2022/08/21 03:59:20;;;;;;;3.60;3.30;;;;;24.70;100549.00;;;;2094644;28;20693;-54
2022/08/21 04:00:21;;;;;;;3.37;3.07;;;;;24.70;100550.00;;;;2095092;28;20220;-54
2022/08/21 04:01:21;;;;;;;3.63;2.90;;;;;24.70;100561.00;;;;2094869;28;20208;-54
2022/08/21 04:02:22;;;;;;;2.63;2.37;;;;;24.70;100557.00;;;;2095175;28;20686;-54
2022/08/21 04:03:23;;;;;;;3.07;2.70;;;;;24.70;100563.00;;;;2095168;28;20238;-54
2022/08/21 04:04:23;;;;;;;3.20;2.90;;;;;24.60;100565.00;;;;2095016;28;21085;-54
2022/08/21 04:05:26;;;;;;;2.93;2.63;;;;;24.70;100561.00;;;;2094656;28;20224;-54
2022/08/21 04:06:27;;;;;;;3.13;2.53;;;;;24.70;100569.00;;;;2095217;28;20655;-54
2022/08/21 04:07:27;;;;;;;3.10;2.80;;;;;24.70;100572.00;;;;2093032;28;20205;-54
2022/08/21 04:08:28;;;;;;;3.10;2.80;;;;;24.70;100572.00;;;;2094999;28;20234;-54
2022/08/21 04:09:28;;;;;;;3.27;2.80;;;;;24.60;100571.00;;;;2094869;28;20204;-54
2022/08/21 04:10:30;;;;;;;2.50;2.30;;;;;24.60;100570.00;;;;2094808;28;20214;-54
2022/08/21 04:11:30;;;;;;;3.35;2.67;;;;;24.60;100576.00;;;;2094424;28;20211;-54
2022/08/21 04:12:30;;;;;;;2.80;2.60;;;;;24.60;100566.00;;;;2094286;28;20216;-54
2022/08/21 04:13:31;;;;;;;3.93;2.90;;;;;24.60;100569.00;;;;2094608;28;20216;-54
2022/08/21 04:14:31;;;;;;;3.33;2.70;;;;;24.60;100570.00;;;;2094607;28;20247;-54
2022/08/21 04:15:32;;;;;;;3.30;3.00;;;;;24.60;100565.00;;;;2095037;28;20208;-54
2022/08/21 04:16:32;;;;;;;3.10;2.80;;;;;24.60;100565.00;;;;2094574;28;20219;-54
2022/08/21 04:17:32;;;;;;;2.47;2.27;;;;;24.60;100567.00;;;;2094282;28;20658;-54
2022/08/21 04:18:33;;;;;;;3.00;2.70;;;;;24.60;100566.00;;;;2093524;28;20212;-54
2022/08/21 04:19:33;;;;;;;3.13;2.83;;;;;24.60;100574.00;;;;2095007;28;20208;-54
2022/08/21 04:20:34;;;;;;;2.77;2.50;;;;;24.60;100567.00;;;;2094988;28;20208;-54
2022/08/21 04:21:36;;;;;;;3.13;2.83;;;;;24.60;100570.00;;;;2094965;28;22932;-54
2022/08/21 04:22:36;;;;;;;2.53;2.33;;;;;24.20;100569.00;;;;2095140;28;20751;-54
2022/08/21 04:23:37;;;;;;;3.60;3.20;;;;;24.60;100572.00;;;;2094875;28;20485;-54
2022/08/21 04:24:37;;;;;;;3.60;2.80;;;;;24.60;100570.00;;;;2095025;28;20211;-53
2022/08/21 04:25:38;;;;;;;2.90;2.70;;;;;24.60;100569.00;;;;2088168;28;20215;-53
2022/08/21 04:26:39;;;;;;;2.70;2.50;;;;;24.60;100573.00;;;;2085509;28;20220;-55
2022/08/21 04:27:40;;;;;;;3.30;3.00;;;;;24.60;100577.00;;;;2084620;28;20452;-54
2022/08/21 04:28:40;;;;;;;4.13;2.90;;;;;24.60;100578.00;;;;2091916;28;20446;-53
2022/08/21 04:29:40;;;;;;;4.03;2.80;;;;;24.60;100574.00;;;;2095046;28;20215;-53
2022/08/21 04:30:41;;;;;;;3.40;3.10;;;;;24.60;100571.00;;;;2091173;28;20213;-54
2022/08/21 04:31:43;;;;;;;2.50;2.30;;;;;24.60;100574.00;;;;2086622;28;20297;-56
2022/08/21 04:32:47;;;;;;;3.20;2.90;;;;;24.60;100570.00;;;;2086169;28;20240;-56
2022/08/21 04:33:47;;;;;;;4.73;2.83;;;;;24.60;100573.00;;;;2086296;28;20516;-54
2022/08/21 04:34:48;;;;;;;3.00;2.53;;;;;24.60;100571.00;;;;2088230;28;20451;-58
2022/08/21 04:35:49;;;;;;;2.67;2.47;;;;;24.60;100578.00;;;;2088391;28;20213;-54
2022/08/21 04:36:49;;;;;;;3.07;2.77;;;;;24.60;100567.00;;;;2088256;28;20215;-55
2022/08/21 04:37:49;;;;;;;2.90;2.70;;;;;24.60;100576.00;;;;2086694;28;20465;-55
2022/08/21 04:38:50;;;;;;;3.70;2.57;;;;;24.60;100568.00;;;;2087964;28;20208;-53
2022/08/21 04:39:50;;;;;;;4.50;2.87;;;;;24.60;100575.00;;;;2087950;28;20219;-53
2022/08/21 04:40:50;;;;;;;2.93;2.70;;;;;24.60;100565.00;;;;2087515;28;20232;-54
2022/08/21 04:41:51;;;;;;;2.90;2.70;;;;;24.60;100575.00;;;;2078992;28;20287;-54
2022/08/21 04:42:53;;;;;;;2.90;2.70;;;;;24.50;100577.00;;;;2078367;28;20228;-59
2022/08/21 04:43:55;;;;;;;2.77;2.57;;;;;24.60;100574.00;;;;2088379;28;20251;-54
2022/08/21 04:44:56;;;;;;;3.07;2.70;;;;;24.50;100573.00;;;;2094402;28;20461;-53
2022/08/21 04:45:56;;;;;;;4.33;2.73;;;;;24.60;100578.00;;;;2089279;28;20478;-54
2022/08/21 04:46:57;;;;;;;3.53;2.53;;;;;24.50;100571.00;;;;2096195;28;20508;-53
2022/08/21 04:47:59;;;;;;;3.03;2.60;;;;;24.50;100565.00;;;;2090238;28;20861;-55
2022/08/21 04:48:59;;;;;;;3.20;2.73;;;;;24.50;100572.00;;;;2087295;28;20483;-53
2022/08/21 04:50:00;;;;;;;4.10;2.77;;;;;24.50;100574.00;;;;2087749;28;20471;-53
2022/08/21 04:51:01;;;;;;;4.30;2.80;;;;;24.50;100565.00;;;;2087743;28;20224;-57
2022/08/21 04:52:02;;;;;;;3.23;2.93;;;;;24.50;100573.00;;;;2087866;28;20220;-55
2022/08/21 04:53:07;;;;;;;2.90;2.70;;;;;24.50;100574.00;;;;2087158;28;20471;-54
2022/08/21 04:54:16;;;;;;;2.97;2.70;;;;;24.50;100552.00;;;;2079424;28;20209;-54
2022/08/21 04:55:17;;;;;;;4.07;2.80;;;;;24.50;100565.00;;;;2080276;28;20448;-55
2022/08/21 04:56:35;;;;;;;3.83;2.93;;;;;24.50;100569.00;;;;2074370;28;20252;-53
2022/08/21 04:57:35;;;;;;;2.97;2.70;;;;;24.50;100575.00;;;;2081988;28;20244;-54
2022/08/21 04:58:36;;;;;;;3.93;3.33;;;;;24.50;100577.00;;;;2086609;28;20521;-54
2022/08/21 04:59:54;;;;;;;4.17;2.83;;;;;24.50;100588.00;;;;2094664;28;20214;-57
2022/08/21 05:00:55;;;;;;;2.67;2.40;;;;;24.50;100588.00;;;;2094966;28;20659;-55
2022/08/21 05:01:56;;;;;;;3.17;2.50;;;;;24.50;100590.00;;;;2086993;28;20470;-53